Time;durP1;ratioP1;P1;durP2;ratioP2;P2;SDS_P1;SDS_P2;PMS_P1;PMS_P2;Temp;Humidity;BMP_temperature;BMP_pressure;BME280_temperature;BME280_humidity;BME280_pressure;Samples;Min_cycle;Max_cycle;Signal;HPM_P1;HPM_P2
2023/08/01 00:00:10;;;;;;;8.85;4.70;;;;;;;;;;8445504;28;20056;-85
2023/08/01 00:04:34;;;;;;;12.57;5.60;;;;;;;;;;8454436;28;20075;-86
2023/08/01 00:08:36;;;;;;;8.50;5.20;;;;;;;;;;8451526;28;20071;-86
2023/08/01 00:12:39;;;;;;;11.82;5.60;;;;;;;;;;8465145;28;20043;-86
2023/08/01 00:16:43;;;;;;;9.52;5.57;;;;;;;;;;8451736;28;20400;-90
2023/08/01 00:20:49;;;;;;;10.15;5.32;;;;;;;;;;8443553;28;20483;-87
2023/08/01 00:24:54;;;;;;;9.20;5.53;;;;;;;;;;8449170;28;20497;-85
2023/08/01 00:28:59;;;;;;;9.60;5.20;;;;;;;;;;8461050;28;20519;-86
2023/08/01 00:33:02;;;;;;;9.70;4.82;;;;;;;;;;8447668;28;20085;-85
2023/08/01 00:37:06;;;;;;;6.40;4.32;;;;;;;;;;8439142;28;20055;-86
2023/08/01 00:41:09;;;;;;;10.65;5.03;;;;;;;;;;8434394;28;20040;-86
2023/08/01 00:45:13;;;;;;;9.80;5.30;;;;;;;;;;8440374;28;20047;-86
2023/08/01 00:49:17;;;;;;;10.57;5.07;;;;;;;;;;8450367;28;20078;-86
2023/08/01 00:53:22;;;;;;;9.30;4.95;;;;;;;;;;8450428;28;20483;-86
2023/08/01 00:57:25;;;;;;;10.20;5.15;;;;;;;;;;8447486;28;20052;-86
2023/08/01 01:01:29;;;;;;;9.30;5.30;;;;;;;;;;8430162;28;20146;-90
2023/08/01 01:05:38;;;;;;;11.38;5.05;;;;;;;;;;8446956;28;20164;-86
2023/08/01 01:09:43;;;;;;;10.57;4.55;;;;;;;;;;8450064;28;20096;-85
2023/08/01 01:13:48;;;;;;;9.43;5.10;;;;;;;;;;8463482;28;20122;-85
2023/08/01 01:17:52;;;;;;;6.88;4.40;;;;;;;;;;8449757;28;20050;-85
2023/08/01 01:21:59;;;;;;;9.68;4.95;;;;;;;;;;8449751;28;20123;-87
2023/08/01 01:26:02;;;;;;;9.50;4.93;;;;;;;;;;8445435;28;20039;-86
2023/08/01 01:30:07;;;;;;;11.02;4.40;;;;;;;;;;8452170;28;20074;-91
2023/08/01 01:34:10;;;;;;;9.75;5.18;;;;;;;;;;8449830;28;20131;-89
2023/08/01 01:38:15;;;;;;;11.40;4.88;;;;;;;;;;8445431;28;20044;-88
2023/08/01 01:42:18;;;;;;;9.25;4.65;;;;;;;;;;8450782;28;20039;-86
2023/08/01 01:46:20;;;;;;;8.40;4.75;;;;;;;;;;8455797;28;20148;-91
2023/08/01 01:50:23;;;;;;;10.35;3.92;;;;;;;;;;8455656;28;20043;-86
2023/08/01 01:54:27;;;;;;;8.55;4.30;;;;;;;;;;8451476;28;20048;-90
2023/08/01 01:58:30;;;;;;;10.68;4.10;;;;;;;;;;8442346;28;20598;-86
2023/08/01 02:02:33;;;;;;;7.15;3.90;;;;;;;;;;8458783;28;20431;-91
2023/08/01 02:06:36;;;;;;;6.80;3.78;;;;;;;;;;8463003;28;20067;-86
2023/08/01 02:10:40;;;;;;;8.43;3.70;;;;;;;;;;8460128;28;20048;-90
2023/08/01 02:14:43;;;;;;;12.10;3.80;;;;;;;;;;8452203;28;20477;-86
2023/08/01 02:18:46;;;;;;;8.07;3.72;;;;;;;;;;8459995;28;20032;-88
2023/08/01 02:22:49;;;;;;;8.05;3.75;;;;;;;;;;8444167;28;20044;-92
2023/08/01 02:26:53;;;;;;;6.70;3.65;;;;;;;;;;8461885;28;20127;-88
2023/08/01 02:30:57;;;;;;;6.22;3.65;;;;;;;;;;8462295;28;20108;-89
2023/08/01 02:35:00;;;;;;;6.97;3.80;;;;;;;;;;8462144;28;20039;-85
2023/08/01 02:39:03;;;;;;;9.88;3.75;;;;;;;;;;8450709;28;20117;-86
2023/08/01 02:43:07;;;;;;;8.20;3.90;;;;;;;;;;8459985;28;20050;-91
2023/08/01 02:47:10;;;;;;;6.75;3.55;;;;;;;;;;8450909;28;20070;-88
2023/08/01 02:51:12;;;;;;;10.30;3.55;;;;;;;;;;8447736;28;20051;-91
2023/08/01 02:55:15;;;;;;;7.57;3.72;;;;;;;;;;8461556;28;20496;-89
2023/08/01 02:59:20;;;;;;;6.25;3.25;;;;;;;;;;8437503;28;20078;-86
2023/08/01 03:03:23;;;;;;;7.72;3.38;;;;;;;;;;8447877;28;20107;-86
2023/08/01 03:07:26;;;;;;;6.88;3.60;;;;;;;;;;8447390;28;20468;-86
2023/08/01 03:11:28;;;;;;;6.00;3.50;;;;;;;;;;8447381;28;20445;-90
2023/08/01 03:15:33;;;;;;;6.18;3.67;;;;;;;;;;8433677;28;20055;-90
2023/08/01 03:19:36;;;;;;;5.93;3.40;;;;;;;;;;8445951;28;20715;-87
2023/08/01 03:23:38;;;;;;;9.73;3.40;;;;;;;;;;8467229;28;20126;-85
2023/08/01 03:27:41;;;;;;;9.93;3.90;;;;;;;;;;8441272;28;20048;-90
2023/08/01 03:31:46;;;;;;;6.13;3.53;;;;;;;;;;8433173;28;20044;-86
2023/08/01 03:35:49;;;;;;;10.48;3.40;;;;;;;;;;8445750;28;20124;-86
2023/08/01 03:39:51;;;;;;;6.88;3.40;;;;;;;;;;8446982;28;20120;-86
2023/08/01 03:43:54;;;;;;;6.50;3.55;;;;;;;;;;8446513;28;20554;-87
2023/08/01 03:47:58;;;;;;;8.25;3.60;;;;;;;;;;8452079;28;20043;-85
2023/08/01 03:52:01;;;;;;;6.65;3.22;;;;;;;;;;8466426;28;20046;-84
2023/08/01 03:56:05;;;;;;;7.03;3.67;;;;;;;;;;8452461;28;20122;-90
2023/08/01 04:00:13;;;;;;;6.35;3.40;;;;;;;;;;8454011;28;20411;-86
2023/08/01 04:04:17;;;;;;;9.73;3.72;;;;;;;;;;8450827;28;20044;-87
2023/08/01 04:08:19;;;;;;;7.97;3.65;;;;;;;;;;8450652;28;20039;-90
2023/08/01 04:12:22;;;;;;;6.55;3.53;;;;;;;;;;8438779;28;20043;-87
2023/08/01 04:16:25;;;;;;;6.63;3.30;;;;;;;;;;8461164;28;20044;-89
2023/08/01 04:20:30;;;;;;;7.43;3.30;;;;;;;;;;8451617;28;20044;-86
2023/08/01 04:24:32;;;;;;;5.15;3.47;;;;;;;;;;8446321;28;20051;-86
2023/08/01 04:28:35;;;;;;;8.95;3.65;;;;;;;;;;8445496;28;20050;-93
2023/08/01 04:32:38;;;;;;;10.07;3.40;;;;;;;;;;8448914;28;20262;-86
2023/08/01 04:36:43;;;;;;;7.18;3.17;;;;;;;;;;8447853;28;20465;-88
2023/08/01 04:40:45;;;;;;;5.05;3.60;;;;;;;;;;8432720;28;20132;-91
2023/08/01 04:44:48;;;;;;;6.97;3.20;;;;;;;;;;8444377;28;20163;-90
2023/08/01 04:48:51;;;;;;;5.97;3.28;;;;;;;;;;8449169;28;20063;-91
2023/08/01 04:52:55;;;;;;;8.38;3.65;;;;;;;;;;8453137;28;20040;-91
2023/08/01 04:56:58;;;;;;;7.03;3.30;;;;;;;;;;8457673;28;20123;-87
2023/08/01 05:01:01;;;;;;;6.97;3.70;;;;;;;;;;8443900;28;20388;-87
2023/08/01 05:05:05;;;;;;;5.60;3.33;;;;;;;;;;8444396;28;20076;-85
2023/08/01 05:09:09;;;;;;;6.82;3.30;;;;;;;;;;8457951;28;20044;-86
2023/08/01 05:13:12;;;;;;;6.97;3.33;;;;;;;;;;8444160;28;20498;-86
2023/08/01 05:17:15;;;;;;;6.15;3.17;;;;;;;;;;8449795;28;20574;-90
2023/08/01 05:21:18;;;;;;;6.72;3.25;;;;;;;;;;8451178;28;20086;-89
2023/08/01 05:25:22;;;;;;;6.35;3.40;;;;;;;;;;8449593;28;20071;-86
2023/08/01 05:29:25;;;;;;;6.88;3.08;;;;;;;;;;8463566;28;20071;-87
2023/08/01 05:33:28;;;;;;;5.65;3.13;;;;;;;;;;8458174;28;20055;-87
2023/08/01 05:37:31;;;;;;;4.72;3.10;;;;;;;;;;8462335;28;20066;-87
2023/08/01 05:41:36;;;;;;;8.20;3.30;;;;;;;;;;8449369;28;20273;-86
2023/08/01 05:45:39;;;;;;;7.70;2.97;;;;;;;;;;8454696;28;20471;-86
2023/08/01 05:49:42;;;;;;;5.45;2.78;;;;;;;;;;8442879;28;20130;-86
2023/08/01 05:53:45;;;;;;;5.82;3.10;;;;;;;;;;8450815;28;20051;-87
2023/08/01 05:57:52;;;;;;;7.10;3.28;;;;;;;;;;8456765;28;20046;-90
2023/08/01 06:01:55;;;;;;;5.50;3.00;;;;;;;;;;8455706;28;20473;-87
2023/08/01 06:05:58;;;;;;;4.90;3.13;;;;;;;;;;8442991;28;20040;-86
2023/08/01 06:10:01;;;;;;;6.68;2.97;;;;;;;;;;8455375;28;20092;-89
2023/08/01 06:14:05;;;;;;;6.32;3.08;;;;;;;;;;8462216;28;20040;-88
2023/08/01 06:18:08;;;;;;;4.30;2.92;;;;;;;;;;8462600;28;20138;-87
2023/08/01 06:22:11;;;;;;;4.20;3.00;;;;;;;;;;8428809;28;20524;-89
2023/08/01 06:26:15;;;;;;;10.93;3.13;;;;;;;;;;8442173;28;20100;-87
2023/08/01 06:30:19;;;;;;;4.68;3.00;;;;;;;;;;8449174;28;20644;-86
2023/08/01 06:34:22;;;;;;;5.15;2.90;;;;;;;;;;8452518;28;20483;-87
2023/08/01 06:38:25;;;;;;;5.35;3.10;;;;;;;;;;8459941;27;20044;-90
2023/08/01 06:42:28;;;;;;;6.72;3.13;;;;;;;;;;8444494;28;20043;-87
2023/08/01 06:46:33;;;;;;;8.48;3.38;;;;;;;;;;8446406;28;20412;-91
2023/08/01 06:50:35;;;;;;;6.78;2.60;;;;;;;;;;8432867;28;20579;-86
2023/08/01 06:54:39;;;;;;;4.80;2.80;;;;;;;;;;8444997;28;20046;-86
2023/08/01 06:58:42;;;;;;;4.72;2.80;;;;;;;;;;8456255;28;20050;-87
2023/08/01 07:02:46;;;;;;;6.18;2.72;;;;;;;;;;8445559;28;20044;-86
2023/08/01 07:06:49;;;;;;;6.00;2.90;;;;;;;;;;8447559;28;20160;-86
2023/08/01 07:10:52;;;;;;;5.82;2.90;;;;;;;;;;8434560;28;20127;-90
2023/08/01 07:14:55;;;;;;;5.65;2.85;;;;;;;;;;8434108;28;20173;-86
2023/08/01 07:19:02;;;;;;;7.22;2.90;;;;;;;;;;8453900;28;20134;-88
2023/08/01 07:23:05;;;;;;;6.78;3.08;;;;;;;;;;8453495;28;20181;-86
2023/08/01 07:27:08;;;;;;;5.72;2.70;;;;;;;;;;8445630;28;20050;-88
2023/08/01 07:31:11;;;;;;;6.85;2.80;;;;;;;;;;8459617;28;20051;-91
2023/08/01 07:35:16;;;;;;;5.55;2.85;;;;;;;;;;8438537;28;20154;-89
2023/08/01 07:39:21;;;;;;;7.55;3.10;;;;;;;;;;8462994;28;20054;-91
2023/08/01 07:43:27;;;;;;;7.50;3.13;;;;;;;;;;8465113;27;20040;-90
2023/08/01 07:47:30;;;;;;;6.88;3.05;;;;;;;;;;8463463;28;20058;-88
2023/08/01 07:51:34;;;;;;;3.97;2.60;;;;;;;;;;8462540;28;20047;-93
2023/08/01 07:55:37;;;;;;;5.05;2.75;;;;;;;;;;8462177;28;20162;-91
2023/08/01 07:59:43;;;;;;;5.35;2.60;;;;;;;;;;8462182;28;20721;-90
2023/08/01 08:03:46;;;;;;;5.63;3.00;;;;;;;;;;8462606;28;20048;-88
2023/08/01 08:07:51;;;;;;;4.75;2.67;;;;;;;;;;8462932;28;20054;-92
2023/08/01 08:11:57;;;;;;;5.80;2.60;;;;;;;;;;8443784;28;20389;-90
2023/08/01 08:16:04;;;;;;;6.30;2.70;;;;;;;;;;8441657;28;20540;-89
2023/08/01 08:20:11;;;;;;;5.90;2.85;;;;;;;;;;8460797;28;20126;-93
2023/08/01 08:24:15;;;;;;;5.90;2.53;;;;;;;;;;8461119;28;20122;-92
2023/08/01 08:28:29;;;;;;;5.03;2.95;;;;;;;;;;8448178;28;20051;-88
2023/08/01 08:32:32;;;;;;;4.43;2.70;;;;;;;;;;8446610;28;20055;-89
2023/08/01 08:36:35;;;;;;;4.28;2.65;;;;;;;;;;8444464;28;20047;-88
2023/08/01 08:40:44;;;;;;;4.55;2.55;;;;;;;;;;8454286;28;20047;-92
2023/08/01 08:44:51;;;;;;;4.65;2.55;;;;;;;;;;8453322;28;20074;-88
2023/08/01 08:48:54;;;;;;;5.97;2.60;;;;;;;;;;8433743;28;20044;-90
2023/08/01 08:52:57;;;;;;;6.00;2.88;;;;;;;;;;8451504;28;20051;-91
2023/08/01 08:57:03;;;;;;;3.80;2.40;;;;;;;;;;8438715;28;20043;-89
2023/08/01 09:01:08;;;;;;;3.88;2.50;;;;;;;;;;8441475;28;20063;-91
2023/08/01 09:05:11;;;;;;;4.47;2.30;;;;;;;;;;8457709;28;20457;-90
2023/08/01 09:09:15;;;;;;;6.70;2.38;;;;;;;;;;8447136;28;20127;-88
2023/08/01 09:13:19;;;;;;;3.95;2.50;;;;;;;;;;8460146;28;20087;-90
2023/08/01 09:17:22;;;;;;;5.57;2.45;;;;;;;;;;8440458;28;20043;-91
2023/08/01 09:21:26;;;;;;;4.70;2.83;;;;;;;;;;8443132;28;20110;-92
2023/08/01 09:25:35;;;;;;;5.70;2.85;;;;;;;;;;8451493;28;20048;-87
2023/08/01 09:29:39;;;;;;;5.53;2.50;;;;;;;;;;8444687;28;20043;-90
2023/08/01 09:33:42;;;;;;;5.43;2.40;;;;;;;;;;8457894;28;20082;-90
2023/08/01 09:37:45;;;;;;;5.22;2.47;;;;;;;;;;8457588;28;20067;-90
2023/08/01 09:41:56;;;;;;;4.07;2.40;;;;;;;;;;8436293;28;20051;-88
2023/08/01 09:46:00;;;;;;;;;;;;;;;;;;8450003;28;20082;-89
2023/08/01 09:50:03;;;;;;;6.43;2.72;;;;;;;;;;8442288;28;19923;-90
2023/08/01 09:54:06;;;;;;;8.98;2.83;;;;;;;;;;8442942;28;20068;-87
2023/08/01 09:58:11;;;;;;;4.18;2.40;;;;;;;;;;8434994;28;20058;-88
2023/08/01 10:02:17;;;;;;;6.28;2.13;;;;;;;;;;8450659;28;20396;-87
2023/08/01 10:06:21;;;;;;;11.35;6.80;;;;;;;;;;8450355;28;20353;-87
2023/08/01 10:10:25;;;;;;;10.73;7.25;;;;;;;;;;8463364;28;20051;-89
2023/08/01 10:14:28;;;;;;;18.48;11.80;;;;;;;;;;8453682;28;20071;-90
2023/08/01 10:18:37;;;;;;;8.15;3.60;;;;;;;;;;8451329;28;20044;-91
2023/08/01 10:22:41;;;;;;;8.18;6.68;;;;;;;;;;8454546;28;20077;-91
2023/08/01 10:26:46;;;;;;;8.52;4.43;;;;;;;;;;8448764;28;20058;-87
2023/08/01 10:30:48;;;;;;;13.95;3.90;;;;;;;;;;8454187;28;20056;-86
2023/08/01 10:34:56;;;;;;;5.60;3.50;;;;;;;;;;8459762;28;20495;-88
2023/08/01 10:39:00;;;;;;;10.80;3.15;;;;;;;;;;8448897;28;20046;-90
2023/08/01 10:43:03;;;;;;;5.05;3.00;;;;;;;;;;8460469;28;20510;-87
2023/08/01 10:47:06;;;;;;;6.25;3.25;;;;;;;;;;8461447;28;20114;-91
2023/08/01 10:51:11;;;;;;;8.32;3.22;;;;;;;;;;8462002;28;20127;-86
2023/08/01 10:55:14;;;;;;;4.57;2.92;;;;;;;;;;8444860;28;20092;-85
2023/08/01 10:59:17;;;;;;;6.70;3.50;;;;;;;;;;8457466;28;20139;-85
2023/08/01 11:03:20;;;;;;;8.23;5.07;;;;;;;;;;8452522;28;20047;-86
2023/08/01 11:07:25;;;;;;;8.63;4.03;;;;;;;;;;8433901;28;20051;-91
2023/08/01 11:11:27;;;;;;;6.28;3.10;;;;;;;;;;8458831;28;20048;-91
2023/08/01 11:15:30;;;;;;;6.15;3.28;;;;;;;;;;8461891;28;20127;-87
2023/08/01 11:19:33;;;;;;;6.55;3.45;;;;;;;;;;8432990;28;20127;-87
2023/08/01 11:23:37;;;;;;;7.18;3.25;;;;;;;;;;8466231;28;20061;-86
2023/08/01 11:27:40;;;;;;;6.63;3.42;;;;;;;;;;8453649;28;20486;-89
2023/08/01 11:31:53;;;;;;;6.10;2.95;;;;;;;;;;8467640;28;20467;-86
2023/08/01 11:35:59;;;;;;;5.47;2.80;;;;;;;;;;8439939;28;20139;-88
2023/08/01 11:40:04;;;;;;;3.88;2.55;;;;;;;;;;8459812;28;20044;-86
2023/08/01 11:44:08;;;;;;;5.40;2.97;;;;;;;;;;8446811;28;20044;-88
2023/08/01 11:48:14;;;;;;;5.15;3.10;;;;;;;;;;8455088;28;20110;-88
2023/08/01 11:52:25;;;;;;;5.00;3.40;;;;;;;;;;8462964;28;20054;-86
2023/08/01 11:56:30;;;;;;;5.50;3.35;;;;;;;;;;8445464;28;20063;-86
2023/08/01 12:00:32;;;;;;;6.95;3.42;;;;;;;;;;8453737;28;20482;-88
2023/08/01 12:04:35;;;;;;;6.07;3.40;;;;;;;;;;8441197;28;20044;-87
2023/08/01 12:08:39;;;;;;;9.63;3.55;;;;;;;;;;8457862;28;20063;-88
2023/08/01 12:12:47;;;;;;;6.00;3.20;;;;;;;;;;8448385;28;20100;-92
2023/08/01 12:16:50;;;;;;;5.93;3.50;;;;;;;;;;8461585;28;20139;-88
2023/08/01 12:20:53;;;;;;;5.40;3.28;;;;;;;;;;8455793;28;20047;-87
2023/08/01 12:24:55;;;;;;;6.15;3.17;;;;;;;;;;8455083;28;20047;-88
2023/08/01 12:29:02;;;;;;;6.85;3.30;;;;;;;;;;8455425;28;20070;-89
2023/08/01 12:33:05;;;;;;;7.70;3.55;;;;;;;;;;8447655;28;20045;-89
2023/08/01 12:37:08;;;;;;;6.45;3.60;;;;;;;;;;8446511;28;20503;-88
2023/08/01 12:41:11;;;;;;;5.43;3.80;;;;;;;;;;8436828;28;20059;-89
2023/08/01 12:45:16;;;;;;;6.45;3.55;;;;;;;;;;8455855;28;20048;-89
2023/08/01 12:49:19;;;;;;;5.75;3.58;;;;;;;;;;8458297;28;20433;-90
2023/08/01 12:53:23;;;;;;;6.65;3.85;;;;;;;;;;8441683;28;20152;-88
2023/08/01 12:57:29;;;;;;;7.03;3.70;;;;;;;;;;8442256;28;20050;-92
2023/08/01 13:01:34;;;;;;;6.65;3.70;;;;;;;;;;8458803;28;20510;-88
2023/08/01 13:05:39;;;;;;;7.55;3.83;;;;;;;;;;8452243;28;20050;-91
2023/08/01 13:09:45;;;;;;;7.53;3.45;;;;;;;;;;8449974;28;20800;-87
2023/08/01 13:13:51;;;;;;;7.32;4.03;;;;;;;;;;8450926;28;20380;-88
2023/08/01 13:17:56;;;;;;;6.30;3.78;;;;;;;;;;8459288;28;20054;-90
2023/08/01 13:22:01;;;;;;;7.32;4.28;;;;;;;;;;8450577;28;20050;-89
2023/08/01 13:26:04;;;;;;;5.97;4.00;;;;;;;;;;8436935;28;20079;-89
2023/08/01 13:30:14;;;;;;;7.38;4.45;;;;;;;;;;8444612;28;20096;-91
2023/08/01 13:34:19;;;;;;;7.95;4.68;;;;;;;;;;8443617;28;20047;-89
2023/08/01 13:38:24;;;;;;;9.05;4.10;;;;;;;;;;8437673;28;20495;-91
2023/08/01 13:42:28;;;;;;;6.32;4.20;;;;;;;;;;8447205;28;20464;-89
2023/08/01 13:46:33;;;;;;;7.20;4.35;;;;;;;;;;8453472;28;20442;-88
2023/08/01 13:50:40;;;;;;;7.63;3.80;;;;;;;;;;8444064;28;20053;-89
2023/08/01 13:54:50;;;;;;;6.13;4.00;;;;;;;;;;8447293;28;20055;-88
2023/08/01 13:58:55;;;;;;;6.55;4.13;;;;;;;;;;8446741;28;20522;-89
2023/08/01 14:02:59;;;;;;;6.88;4.00;;;;;;;;;;8443487;28;20044;-89
2023/08/01 14:07:05;;;;;;;6.05;4.38;;;;;;;;;;8444196;28;20043;-90
2023/08/01 14:11:12;;;;;;;6.75;4.25;;;;;;;;;;8441614;28;20512;-91
2023/08/01 14:15:14;;;;;;;6.90;4.35;;;;;;;;;;8440897;28;20087;-89
2023/08/01 14:19:17;;;;;;;7.05;4.22;;;;;;;;;;8448919;28;20501;-88
2023/08/01 14:23:24;;;;;;;11.18;3.83;;;;;;;;;;8432555;28;20131;-91
2023/08/01 14:27:27;;;;;;;6.00;4.15;;;;;;;;;;8429599;28;20067;-89
2023/08/01 14:31:30;;;;;;;6.00;3.95;;;;;;;;;;8448755;28;20047;-91
2023/08/01 14:35:34;;;;;;;6.28;3.78;;;;;;;;;;8457344;28;20052;-91
2023/08/01 14:39:38;;;;;;;5.65;3.58;;;;;;;;;;8431618;28;20048;-87
2023/08/01 14:43:41;;;;;;;6.00;3.63;;;;;;;;;;8461341;28;20035;-87
2023/08/01 14:47:44;;;;;;;5.30;3.05;;;;;;;;;;8432525;28;20564;-88
2023/08/01 14:51:47;;;;;;;5.85;3.38;;;;;;;;;;8451596;28;20071;-86
2023/08/01 14:55:59;;;;;;;4.82;3.20;;;;;;;;;;8438707;28;20044;-89
2023/08/01 15:00:03;;;;;;;5.47;3.17;;;;;;;;;;8446069;28;20051;-87
2023/08/01 15:04:06;;;;;;;4.88;3.10;;;;;;;;;;8449485;28;20048;-89
2023/08/01 15:08:09;;;;;;;4.35;3.10;;;;;;;;;;8446467;28;20158;-90
2023/08/01 15:12:14;;;;;;;5.43;3.15;;;;;;;;;;8449251;28;20047;-89
2023/08/01 15:16:17;;;;;;;6.63;3.30;;;;;;;;;;8434005;28;20104;-89
2023/08/01 15:20:20;;;;;;;7.38;3.47;;;;;;;;;;8452868;28;20044;-88
2023/08/01 15:24:23;;;;;;;6.03;3.70;;;;;;;;;;8454025;28;20051;-92
2023/08/01 15:28:28;;;;;;;5.95;3.45;;;;;;;;;;8453788;28;20402;-91
2023/08/01 15:32:32;;;;;;;5.82;3.63;;;;;;;;;;8454566;28;20471;-87
2023/08/01 15:36:35;;;;;;;5.20;3.22;;;;;;;;;;8446494;28;20109;-88
2023/08/01 15:40:39;;;;;;;5.85;3.00;;;;;;;;;;8460077;28;20089;-87
2023/08/01 15:44:43;;;;;;;7.38;3.25;;;;;;;;;;8466784;28;20043;-93
2023/08/01 15:48:46;;;;;;;4.78;3.05;;;;;;;;;;8466441;28;20044;-87
2023/08/01 15:52:49;;;;;;;5.20;2.90;;;;;;;;;;8466952;28;20403;-87
2023/08/01 15:56:53;;;;;;;4.88;2.80;;;;;;;;;;8450171;28;20074;-86
2023/08/01 16:00:59;;;;;;;4.95;3.10;;;;;;;;;;8452142;28;20134;-88
2023/08/01 16:05:03;;;;;;;3.97;2.60;;;;;;;;;;8453908;28;20051;-87
2023/08/01 16:09:06;;;;;;;7.35;3.50;;;;;;;;;;8460720;28;20036;-89
2023/08/01 16:13:11;;;;;;;4.70;3.20;;;;;;;;;;8459185;28;20173;-88
2023/08/01 16:17:15;;;;;;;4.95;2.78;;;;;;;;;;8446891;28;20043;-88
2023/08/01 16:21:19;;;;;;;5.63;3.22;;;;;;;;;;8451427;28;20043;-89
2023/08/01 16:25:23;;;;;;;6.82;2.95;;;;;;;;;;8458428;28;20047;-87
2023/08/01 16:29:27;;;;;;;5.82;3.08;;;;;;;;;;8452142;28;20054;-88
2023/08/01 16:33:32;;;;;;;6.72;3.80;;;;;;;;;;8450809;28;20122;-88
2023/08/01 16:37:36;;;;;;;4.60;3.17;;;;;;;;;;8450846;28;20214;-88
2023/08/01 16:41:40;;;;;;;6.38;3.33;;;;;;;;;;8447037;28;20040;-89
2023/08/01 16:45:43;;;;;;;5.53;3.22;;;;;;;;;;8457864;28;20468;-90
2023/08/01 16:49:49;;;;;;;5.70;3.10;;;;;;;;;;8458002;28;20769;-92
2023/08/01 16:53:54;;;;;;;6.43;3.10;;;;;;;;;;8462406;28;20463;-88
2023/08/01 16:57:58;;;;;;;5.20;3.10;;;;;;;;;;8438349;27;20044;-89
2023/08/01 17:02:02;;;;;;;5.13;3.17;;;;;;;;;;8455676;28;20079;-91
2023/08/01 17:06:10;;;;;;;6.05;3.10;;;;;;;;;;8442774;28;20099;-92
2023/08/01 17:10:15;;;;;;;6.00;3.40;;;;;;;;;;8452549;28;20047;-91
2023/08/01 17:14:18;;;;;;;5.72;3.38;;;;;;;;;;8443517;28;20483;-92
2023/08/01 17:18:21;;;;;;;6.18;3.08;;;;;;;;;;8456021;28;20074;-92
2023/08/01 17:22:27;;;;;;;8.75;3.30;;;;;;;;;;8444659;28;20053;-89
2023/08/01 17:26:37;;;;;;;6.10;3.40;;;;;;;;;;8446206;28;20043;-91
2023/08/01 17:30:40;;;;;;;6.88;3.60;;;;;;;;;;8450904;28;20119;-92
2023/08/01 17:34:46;;;;;;;6.88;3.33;;;;;;;;;;8444930;28;20043;-92
2023/08/01 17:38:53;;;;;;;5.70;3.20;;;;;;;;;;8461266;28;20046;-89
2023/08/01 17:42:59;;;;;;;5.25;3.40;;;;;;;;;;8462845;28;20048;-91
2023/08/01 17:47:03;;;;;;;5.55;3.20;;;;;;;;;;8463568;28;20046;-87
2023/08/01 17:51:08;;;;;;;6.05;2.92;;;;;;;;;;8459786;28;20188;-92
2023/08/01 17:55:13;;;;;;;6.22;3.47;;;;;;;;;;8437507;28;20474;-91
2023/08/01 17:59:17;;;;;;;4.75;3.28;;;;;;;;;;8436667;28;20132;-89
2023/08/01 18:03:21;;;;;;;6.55;3.20;;;;;;;;;;8461675;28;20044;-92
2023/08/01 18:07:24;;;;;;;5.53;3.38;;;;;;;;;;8463795;28;20100;-90
2023/08/01 18:11:33;;;;;;;6.75;3.40;;;;;;;;;;8461853;28;20050;-90
2023/08/01 18:15:40;;;;;;;5.95;3.28;;;;;;;;;;8442975;28;20048;-92
2023/08/01 18:19:45;;;;;;;6.05;3.50;;;;;;;;;;8450365;28;20042;-92
2023/08/01 18:23:52;;;;;;;7.00;3.85;;;;;;;;;;8438332;28;20036;-90
2023/08/01 18:28:05;;;;;;;5.47;3.58;;;;;;;;;;8460079;28;20067;-91
2023/08/01 18:32:12;;;;;;;5.90;3.70;;;;;;;;;;8443597;28;20498;-91
2023/08/01 18:36:19;;;;;;;6.32;3.47;;;;;;;;;;8464113;28;20097;-89
2023/08/01 18:40:31;;;;;;;7.88;3.80;;;;;;;;;;8464386;28;20051;-91
2023/08/01 18:44:39;;;;;;;7.05;3.65;;;;;;;;;;8435836;28;20487;-90
2023/08/01 18:48:43;;;;;;;5.55;3.80;;;;;;;;;;8466420;28;20090;-88
2023/08/01 18:52:53;;;;;;;5.53;3.40;;;;;;;;;;8456822;28;20093;-91
2023/08/01 18:56:59;;;;;;;5.28;3.38;;;;;;;;;;8462476;28;20134;-91
2023/08/01 19:01:17;;;;;;;6.97;3.58;;;;;;;;;;8466330;28;20481;-91
2023/08/01 19:05:25;;;;;;;5.93;3.53;;;;;;;;;;8440760;28;20127;-90
2023/08/01 19:09:32;;;;;;;6.55;3.70;;;;;;;;;;8458879;28;20393;-91
2023/08/01 19:13:35;;;;;;;7.20;3.80;;;;;;;;;;8457655;28;20040;-93
2023/08/01 19:17:42;;;;;;;6.82;4.00;;;;;;;;;;8465907;28;20109;-90
2023/08/01 19:21:45;;;;;;;5.93;3.28;;;;;;;;;;8444544;28;20050;-92
2023/08/01 19:25:49;;;;;;;9.77;3.97;;;;;;;;;;8450048;28;20536;-89
2023/08/01 19:29:54;;;;;;;12.13;6.38;;;;;;;;;;8446494;28;20046;-92
2023/08/01 19:34:03;;;;;;;9.07;6.47;;;;;;;;;;8451613;28;20070;-89
2023/08/01 19:38:07;;;;;;;8.35;5.45;;;;;;;;;;8452549;28;20384;-91
2023/08/01 19:42:12;;;;;;;8.63;5.07;;;;;;;;;;8459150;28;20104;-88
2023/08/01 19:46:16;;;;;;;7.25;4.38;;;;;;;;;;8455884;28;20616;-88
2023/08/01 19:50:24;;;;;;;8.27;4.05;;;;;;;;;;8442939;28;20047;-91
2023/08/01 19:54:30;;;;;;;5.97;3.70;;;;;;;;;;8421445;28;20117;-90
2023/08/01 19:58:34;;;;;;;6.45;3.80;;;;;;;;;;8447420;28;20094;-90
2023/08/01 20:02:39;;;;;;;5.93;3.65;;;;;;;;;;8445804;28;20122;-88
2023/08/01 20:06:45;;;;;;;7.45;4.70;;;;;;;;;;8450925;28;20372;-91
2023/08/01 20:10:55;;;;;;;6.57;4.03;;;;;;;;;;8432226;28;20123;-88
2023/08/01 20:15:00;;;;;;;7.82;4.43;;;;;;;;;;8448810;28;20052;-89
2023/08/01 20:19:05;;;;;;;7.78;5.45;;;;;;;;;;8465558;28;20070;-89
2023/08/01 20:23:11;;;;;;;8.82;6.07;;;;;;;;;;8452175;28;20501;-88
2023/08/01 20:27:14;;;;;;;8.05;4.20;;;;;;;;;;8463779;28;20051;-90
2023/08/01 20:31:18;;;;;;;6.50;4.05;;;;;;;;;;8449770;28;20078;-90
2023/08/01 20:35:21;;;;;;;5.90;3.72;;;;;;;;;;8444972;28;20073;-88
2023/08/01 20:39:30;;;;;;;5.47;3.50;;;;;;;;;;8445353;28;20622;-90
2023/08/01 20:43:34;;;;;;;6.43;3.83;;;;;;;;;;8454860;28;20068;-88
2023/08/01 20:47:38;;;;;;;7.07;4.03;;;;;;;;;;8458586;28;20051;-88
2023/08/01 20:51:41;;;;;;;7.25;3.63;;;;;;;;;;8429944;28;20044;-88
2023/08/01 20:55:46;;;;;;;7.43;3.95;;;;;;;;;;8447284;28;20040;-90
2023/08/01 20:59:50;;;;;;;6.30;3.65;;;;;;;;;;8440047;28;20052;-89
2023/08/01 21:03:54;;;;;;;6.65;4.15;;;;;;;;;;8444168;28;20600;-89
2023/08/01 21:07:56;;;;;;;5.20;3.42;;;;;;;;;;8443040;28;20044;-88
2023/08/01 21:12:01;;;;;;;8.38;3.70;;;;;;;;;;8443780;28;20055;-90
2023/08/01 21:16:12;;;;;;;5.88;3.17;;;;;;;;;;8453704;28;20526;-90
2023/08/01 21:20:16;;;;;;;5.30;3.57;;;;;;;;;;8449862;28;20047;-88
2023/08/01 21:24:19;;;;;;;6.18;3.28;;;;;;;;;;8448300;28;20053;-88
2023/08/01 21:28:23;;;;;;;9.10;3.50;;;;;;;;;;8449657;28;20071;-89
2023/08/01 21:32:26;;;;;;;5.82;3.58;;;;;;;;;;8443353;28;20101;-89
2023/08/01 21:36:29;;;;;;;9.82;3.63;;;;;;;;;;8447759;28;20130;-89
2023/08/01 21:40:36;;;;;;;6.93;3.60;;;;;;;;;;8463089;28;20598;-87
2023/08/01 21:44:42;;;;;;;5.78;3.75;;;;;;;;;;8462917;28;20470;-89
2023/08/01 21:48:45;;;;;;;7.90;3.15;;;;;;;;;;8450691;28;20475;-88
2023/08/01 21:52:47;;;;;;;6.18;3.67;;;;;;;;;;8448682;28;20050;-87
2023/08/01 21:56:50;;;;;;;8.13;3.75;;;;;;;;;;8436691;28;20074;-92
2023/08/01 22:00:55;;;;;;;7.45;3.60;;;;;;;;;;8460678;28;20128;-89
2023/08/01 22:04:58;;;;;;;7.43;3.85;;;;;;;;;;8450922;28;20096;-90
2023/08/01 22:09:01;;;;;;;8.52;3.92;;;;;;;;;;8448020;28;20046;-89
2023/08/01 22:13:04;;;;;;;9.75;3.97;;;;;;;;;;8437207;28;20093;-89
2023/08/01 22:17:08;;;;;;;7.10;3.80;;;;;;;;;;8455194;28;20044;-88
2023/08/01 22:21:11;;;;;;;7.72;3.75;;;;;;;;;;8441285;28;20134;-89
2023/08/01 22:25:14;;;;;;;6.63;3.78;;;;;;;;;;8429885;28;20128;-90
2023/08/01 22:29:17;;;;;;;5.22;3.47;;;;;;;;;;8454847;28;20043;-89
2023/08/01 22:33:22;;;;;;;6.05;3.45;;;;;;;;;;8448618;28;20073;-90
2023/08/01 22:37:25;;;;;;;8.82;3.67;;;;;;;;;;8448481;28;20040;-88
2023/08/01 22:41:28;;;;;;;7.22;3.55;;;;;;;;;;8443333;28;20068;-89
2023/08/01 22:45:31;;;;;;;8.15;3.88;;;;;;;;;;8441993;28;20385;-90
2023/08/01 22:49:36;;;;;;;7.97;3.90;;;;;;;;;;8434035;28;20123;-88
2023/08/01 22:53:40;;;;;;;7.53;3.70;;;;;;;;;;8449657;28;20059;-89
2023/08/01 22:57:43;;;;;;;7.07;4.32;;;;;;;;;;8447395;28;20053;-88
2023/08/01 23:01:46;;;;;;;7.53;3.92;;;;;;;;;;8448126;28;20051;-90
2023/08/01 23:05:51;;;;;;;10.35;5.28;;;;;;;;;;8461821;28;20154;-88
2023/08/01 23:09:59;;;;;;;6.72;4.03;;;;;;;;;;8450759;28;20047;-89
2023/08/01 23:14:02;;;;;;;10.45;4.95;;;;;;;;;;8449550;28;20110;-87
2023/08/01 23:18:05;;;;;;;7.10;3.90;;;;;;;;;;8443314;28;20071;-89
2023/08/01 23:22:09;;;;;;;9.25;4.13;;;;;;;;;;8440151;28;20507;-89
2023/08/01 23:26:13;;;;;;;6.60;4.00;;;;;;;;;;8453457;28;20554;-88
2023/08/01 23:30:16;;;;;;;7.85;4.32;;;;;;;;;;8460822;28;20118;-88
2023/08/01 23:34:19;;;;;;;8.95;4.10;;;;;;;;;;8447135;28;20134;-89
2023/08/01 23:38:24;;;;;;;7.97;4.10;;;;;;;;;;8453060;28;20048;-90
2023/08/01 23:42:27;;;;;;;11.43;4.40;;;;;;;;;;8453930;28;20521;-89
2023/08/01 23:46:30;;;;;;;7.00;4.03;;;;;;;;;;8452798;28;20581;-91
2023/08/01 23:50:33;;;;;;;9.65;4.93;;;;;;;;;;8453391;28;20068;-89
2023/08/01 23:54:37;;;;;;;8.13;4.72;;;;;;;;;;8446073;28;20052;-90
2023/08/01 23:58:40;;;;;;;8.50;4.80;;;;;;;;;;8446269;28;20143;-89
